Tyrone, New York
Current Conditions -  °F | °C
As of 8:53 AM on Thursday 30 Oct 2014 (Local Time) from KPEO Reporting Station
Overcast Overcast  
Wind Chill: 41°   Ceiling: 3100
Heat Index: 44°   Visibility: 10mi
Dew Point: 35°   Wind: 6mph
Humidity: 71%   Direction: NA
Pressure: 30.04"   Gusts: NA
Location:  42.41°N, 77.06°W
Report Text: KPEO 301253Z AUTO VRB05KT 10SM OVC031 07/02 A3004 RMK AO2 SLP177 T00670017
Loading
Personal Weather Stations






























Interactive Weather Map New forecast layout! Learn more

10-Day Weather Forecast

Advertisements
Track Severe Weather on mobile